sensor_id;sensor_type;location;lat;lon;timestamp;P1;durP1;ratioP1;P2;durP2;ratioP2
56541;SDS011;42438;53.174;6.730;2022-11-14T00:02:24;44.22;;;19.05;;
56541;SDS011;42438;53.174;6.730;2022-11-14T00:04:55;47.67;;;20.80;;
56541;SDS011;42438;53.174;6.730;2022-11-14T00:07:35;46.05;;;18.60;;
56541;SDS011;42438;53.174;6.730;2022-11-14T00:10:06;45.90;;;20.05;;
56541;SDS011;42438;53.174;6.730;2022-11-14T00:12:37;44.05;;;18.85;;
56541;SDS011;42438;53.174;6.730;2022-11-14T00:15:08;47.13;;;18.92;;
56541;SDS011;42438;53.174;6.730;2022-11-14T00:17:39;43.78;;;18.67;;
56541;SDS011;42438;53.174;6.730;2022-11-14T00:20:10;42.40;;;18.40;;
56541;SDS011;42438;53.174;6.730;2022-11-14T00:22:42;42.28;;;18.85;;
56541;SDS011;42438;53.174;6.730;2022-11-14T00:25:12;40.22;;;18.42;;
56541;SDS011;42438;53.174;6.730;2022-11-14T00:27:43;42.50;;;19.83;;
56541;SDS011;42438;53.174;6.730;2022-11-14T00:30:14;46.63;;;19.75;;
56541;SDS011;42438;53.174;6.730;2022-11-14T00:32:44;45.05;;;18.60;;
56541;SDS011;42438;53.174;6.730;2022-11-14T00:35:15;43.55;;;20.10;;
56541;SDS011;42438;53.174;6.730;2022-11-14T00:37:46;46.63;;;19.98;;
56541;SDS011;42438;53.174;6.730;2022-11-14T00:40:16;47.58;;;21.10;;
56541;SDS011;42438;53.174;6.730;2022-11-14T00:42:47;49.60;;;21.60;;
56541;SDS011;42438;53.174;6.730;2022-11-14T00:45:18;48.47;;;20.83;;
56541;SDS011;42438;53.174;6.730;2022-11-14T00:47:48;48.58;;;20.90;;
56541;SDS011;42438;53.174;6.730;2022-11-14T00:50:19;50.55;;;21.13;;
56541;SDS011;42438;53.174;6.730;2022-11-14T00:52:50;51.38;;;21.58;;
56541;SDS011;42438;53.174;6.730;2022-11-14T00:55:20;53.05;;;23.40;;
56541;SDS011;42438;53.174;6.730;2022-11-14T00:57:51;54.35;;;23.95;;
56541;SDS011;42438;53.174;6.730;2022-11-14T01:00:21;53.03;;;22.55;;
56541;SDS011;42438;53.174;6.730;2022-11-14T01:02:52;52.90;;;23.13;;
56541;SDS011;42438;53.174;6.730;2022-11-14T01:07:56;47.35;;;19.95;;
56541;SDS011;42438;53.174;6.730;2022-11-14T01:10:27;51.95;;;21.45;;
56541;SDS011;42438;53.174;6.730;2022-11-14T01:12:57;51.88;;;22.42;;
56541;SDS011;42438;53.174;6.730;2022-11-14T01:15:28;52.97;;;23.67;;
56541;SDS011;42438;53.174;6.730;2022-11-14T01:17:59;50.25;;;22.13;;
56541;SDS011;42438;53.174;6.730;2022-11-14T01:20:29;53.55;;;21.77;;
56541;SDS011;42438;53.174;6.730;2022-11-14T01:23:00;50.55;;;21.52;;
56541;SDS011;42438;53.174;6.730;2022-11-14T01:25:37;54.55;;;23.33;;
56541;SDS011;42438;53.174;6.730;2022-11-14T01:28:10;55.65;;;24.92;;
56541;SDS011;42438;53.174;6.730;2022-11-14T01:30:43;51.65;;;23.35;;
56541;SDS011;42438;53.174;6.730;2022-11-14T01:33:14;57.33;;;26.40;;
56541;SDS011;42438;53.174;6.730;2022-11-14T01:35:45;56.88;;;25.55;;
56541;SDS011;42438;53.174;6.730;2022-11-14T01:38:16;60.28;;;25.17;;
56541;SDS011;42438;53.174;6.730;2022-11-14T01:40:46;52.80;;;24.40;;
56541;SDS011;42438;53.174;6.730;2022-11-14T01:48:32;53.03;;;24.58;;
56541;SDS011;42438;53.174;6.730;2022-11-14T01:51:18;59.20;;;26.42;;
56541;SDS011;42438;53.174;6.730;2022-11-14T01:53:52;56.13;;;24.67;;
56541;SDS011;42438;53.174;6.730;2022-11-14T01:56:28;55.95;;;23.63;;
56541;SDS011;42438;53.174;6.730;2022-11-14T01:59:10;55.88;;;23.60;;
56541;SDS011;42438;53.174;6.730;2022-11-14T02:01:46;53.80;;;25.17;;
56541;SDS011;42438;53.174;6.730;2022-11-14T02:07:00;57.20;;;24.92;;
56541;SDS011;42438;53.174;6.730;2022-11-14T02:09:34;60.45;;;26.27;;
56541;SDS011;42438;53.174;6.730;2022-11-14T02:12:07;60.38;;;25.88;;
56541;SDS011;42438;53.174;6.730;2022-11-14T02:14:41;64.13;;;26.15;;
56541;SDS011;42438;53.174;6.730;2022-11-14T02:17:14;64.25;;;24.38;;
56541;SDS011;42438;53.174;6.730;2022-11-14T02:19:48;63.30;;;26.90;;
56541;SDS011;42438;53.174;6.730;2022-11-14T02:22:20;63.28;;;27.13;;
56541;SDS011;42438;53.174;6.730;2022-11-14T02:24:50;61.88;;;25.83;;
56541;SDS011;42438;53.174;6.730;2022-11-14T02:27:21;62.50;;;25.98;;
56541;SDS011;42438;53.174;6.730;2022-11-14T02:29:52;54.75;;;25.15;;
56541;SDS011;42438;53.174;6.730;2022-11-14T02:32:23;62.47;;;26.02;;
56541;SDS011;42438;53.174;6.730;2022-11-14T02:34:53;61.45;;;26.15;;
56541;SDS011;42438;53.174;6.730;2022-11-14T02:37:24;56.13;;;24.08;;
56541;SDS011;42438;53.174;6.730;2022-11-14T02:39:54;59.03;;;25.80;;
56541;SDS011;42438;53.174;6.730;2022-11-14T02:42:25;58.97;;;24.45;;
56541;SDS011;42438;53.174;6.730;2022-11-14T02:44:56;59.92;;;24.55;;
56541;SDS011;42438;53.174;6.730;2022-11-14T02:47:27;57.70;;;24.42;;
56541;SDS011;42438;53.174;6.730;2022-11-14T02:49:57;55.83;;;24.02;;
56541;SDS011;42438;53.174;6.730;2022-11-14T02:52:28;59.25;;;23.80;;
56541;SDS011;42438;53.174;6.730;2022-11-14T02:54:59;57.53;;;25.02;;
56541;SDS011;42438;53.174;6.730;2022-11-14T02:57:29;55.08;;;24.52;;
56541;SDS011;42438;53.174;6.730;2022-11-14T03:00:00;57.53;;;23.95;;
56541;SDS011;42438;53.174;6.730;2022-11-14T03:02:31;58.97;;;25.05;;
56541;SDS011;42438;53.174;6.730;2022-11-14T03:05:01;58.13;;;25.48;;
56541;SDS011;42438;53.174;6.730;2022-11-14T03:07:32;56.78;;;24.80;;
56541;SDS011;42438;53.174;6.730;2022-11-14T03:10:03;58.25;;;23.55;;
56541;SDS011;42438;53.174;6.730;2022-11-14T03:12:34;59.42;;;25.25;;
56541;SDS011;42438;53.174;6.730;2022-11-14T03:15:05;57.92;;;24.33;;
56541;SDS011;42438;53.174;6.730;2022-11-14T03:17:36;61.33;;;24.80;;
56541;SDS011;42438;53.174;6.730;2022-11-14T03:20:07;55.38;;;24.08;;
56541;SDS011;42438;53.174;6.730;2022-11-14T03:22:38;54.28;;;23.90;;
56541;SDS011;42438;53.174;6.730;2022-11-14T03:25:09;60.13;;;24.02;;
56541;SDS011;42438;53.174;6.730;2022-11-14T03:27:40;59.50;;;24.55;;
56541;SDS011;42438;53.174;6.730;2022-11-14T03:30:11;56.83;;;24.95;;
56541;SDS011;42438;53.174;6.730;2022-11-14T03:32:41;53.53;;;24.20;;
56541;SDS011;42438;53.174;6.730;2022-11-14T03:35:12;56.85;;;25.38;;
56541;SDS011;42438;53.174;6.730;2022-11-14T03:37:43;55.60;;;25.00;;
56541;SDS011;42438;53.174;6.730;2022-11-14T03:40:14;50.75;;;23.98;;
56541;SDS011;42438;53.174;6.730;2022-11-14T03:42:44;53.20;;;25.67;;
56541;SDS011;42438;53.174;6.730;2022-11-14T03:45:15;53.38;;;23.35;;
56541;SDS011;42438;53.174;6.730;2022-11-14T03:47:46;52.58;;;24.92;;
56541;SDS011;42438;53.174;6.730;2022-11-14T03:50:16;59.00;;;24.92;;
56541;SDS011;42438;53.174;6.730;2022-11-14T03:52:47;53.80;;;24.40;;
56541;SDS011;42438;53.174;6.730;2022-11-14T03:55:18;57.63;;;24.00;;
56541;SDS011;42438;53.174;6.730;2022-11-14T03:57:49;61.47;;;25.15;;
56541;SDS011;42438;53.174;6.730;2022-11-14T04:00:20;53.08;;;24.23;;
56541;SDS011;42438;53.174;6.730;2022-11-14T04:02:51;58.90;;;25.05;;
56541;SDS011;42438;53.174;6.730;2022-11-14T04:05:23;55.50;;;25.23;;
56541;SDS011;42438;53.174;6.730;2022-11-14T04:07:54;62.70;;;27.48;;
56541;SDS011;42438;53.174;6.730;2022-11-14T04:10:25;57.20;;;26.20;;
56541;SDS011;42438;53.174;6.730;2022-11-14T04:12:55;60.33;;;26.17;;
56541;SDS011;42438;53.174;6.730;2022-11-14T04:15:26;64.85;;;27.67;;
56541;SDS011;42438;53.174;6.730;2022-11-14T04:17:57;62.10;;;26.20;;
56541;SDS011;42438;53.174;6.730;2022-11-14T04:20:28;59.35;;;26.67;;
56541;SDS011;42438;53.174;6.730;2022-11-14T04:22:58;56.90;;;24.75;;
56541;SDS011;42438;53.174;6.730;2022-11-14T04:25:29;58.15;;;25.40;;
56541;SDS011;42438;53.174;6.730;2022-11-14T04:27:59;51.17;;;25.90;;
56541;SDS011;42438;53.174;6.730;2022-11-14T04:30:30;48.25;;;23.33;;
56541;SDS011;42438;53.174;6.730;2022-11-14T04:33:01;50.30;;;23.50;;
56541;SDS011;42438;53.174;6.730;2022-11-14T04:35:31;56.83;;;24.73;;
56541;SDS011;42438;53.174;6.730;2022-11-14T04:38:02;53.70;;;23.63;;
56541;SDS011;42438;53.174;6.730;2022-11-14T04:40:33;47.75;;;22.20;;
56541;SDS011;42438;53.174;6.730;2022-11-14T04:43:03;55.72;;;23.63;;
56541;SDS011;42438;53.174;6.730;2022-11-14T04:45:34;51.28;;;22.30;;
56541;SDS011;42438;53.174;6.730;2022-11-14T04:48:05;50.13;;;23.05;;
56541;SDS011;42438;53.174;6.730;2022-11-14T04:50:36;52.58;;;22.50;;
56541;SDS011;42438;53.174;6.730;2022-11-14T04:53:06;53.08;;;23.90;;
56541;SDS011;42438;53.174;6.730;2022-11-14T04:55:37;50.60;;;22.40;;
56541;SDS011;42438;53.174;6.730;2022-11-14T04:58:07;49.33;;;23.70;;
56541;SDS011;42438;53.174;6.730;2022-11-14T05:00:38;52.53;;;22.25;;
56541;SDS011;42438;53.174;6.730;2022-11-14T05:03:09;50.75;;;23.10;;
56541;SDS011;42438;53.174;6.730;2022-11-14T05:05:39;51.97;;;23.25;;
56541;SDS011;42438;53.174;6.730;2022-11-14T05:08:10;54.25;;;23.60;;
56541;SDS011;42438;53.174;6.730;2022-11-14T05:10:41;46.80;;;22.35;;
56541;SDS011;42438;53.174;6.730;2022-11-14T05:13:13;53.83;;;24.90;;
56541;SDS011;42438;53.174;6.730;2022-11-14T05:15:44;49.67;;;22.65;;
56541;SDS011;42438;53.174;6.730;2022-11-14T05:18:15;48.13;;;23.10;;
56541;SDS011;42438;53.174;6.730;2022-11-14T05:20:45;51.78;;;23.48;;
56541;SDS011;42438;53.174;6.730;2022-11-14T05:23:18;47.75;;;21.77;;
56541;SDS011;42438;53.174;6.730;2022-11-14T05:28:31;50.15;;;24.20;;
56541;SDS011;42438;53.174;6.730;2022-11-14T05:31:05;53.67;;;22.38;;
56541;SDS011;42438;53.174;6.730;2022-11-14T05:33:38;50.28;;;23.00;;
56541;SDS011;42438;53.174;6.730;2022-11-14T05:36:09;56.97;;;23.73;;
56541;SDS011;42438;53.174;6.730;2022-11-14T05:38:41;52.70;;;24.15;;
56541;SDS011;42438;53.174;6.730;2022-11-14T05:41:13;53.63;;;23.35;;
56541;SDS011;42438;53.174;6.730;2022-11-14T05:43:46;50.53;;;22.58;;
56541;SDS011;42438;53.174;6.730;2022-11-14T05:46:17;54.58;;;24.15;;
56541;SDS011;42438;53.174;6.730;2022-11-14T05:48:48;50.22;;;23.25;;
56541;SDS011;42438;53.174;6.730;2022-11-14T05:51:18;52.08;;;22.67;;
56541;SDS011;42438;53.174;6.730;2022-11-14T05:53:49;53.55;;;23.83;;
56541;SDS011;42438;53.174;6.730;2022-11-14T05:56:20;51.97;;;22.38;;
56541;SDS011;42438;53.174;6.730;2022-11-14T05:58:50;52.92;;;23.98;;
56541;SDS011;42438;53.174;6.730;2022-11-14T06:01:21;55.05;;;24.05;;
56541;SDS011;42438;53.174;6.730;2022-11-14T06:03:52;52.58;;;23.42;;
56541;SDS011;42438;53.174;6.730;2022-11-14T06:06:22;52.63;;;23.92;;
56541;SDS011;42438;53.174;6.730;2022-11-14T06:08:53;53.97;;;22.58;;
56541;SDS011;42438;53.174;6.730;2022-11-14T06:11:24;52.50;;;23.45;;
56541;SDS011;42438;53.174;6.730;2022-11-14T06:13:54;54.08;;;23.88;;
56541;SDS011;42438;53.174;6.730;2022-11-14T06:16:25;54.60;;;22.92;;
56541;SDS011;42438;53.174;6.730;2022-11-14T06:18:56;49.35;;;21.40;;
56541;SDS011;42438;53.174;6.730;2022-11-14T06:21:26;51.15;;;22.70;;
56541;SDS011;42438;53.174;6.730;2022-11-14T06:23:57;57.35;;;24.25;;
56541;SDS011;42438;53.174;6.730;2022-11-14T06:26:29;56.72;;;23.15;;
56541;SDS011;42438;53.174;6.730;2022-11-14T06:29:00;54.97;;;23.98;;
56541;SDS011;42438;53.174;6.730;2022-11-14T06:31:31;53.92;;;24.20;;
56541;SDS011;42438;53.174;6.730;2022-11-14T06:34:03;56.60;;;23.83;;
56541;SDS011;42438;53.174;6.730;2022-11-14T06:36:34;54.90;;;22.85;;
56541;SDS011;42438;53.174;6.730;2022-11-14T06:39:05;54.50;;;24.70;;
56541;SDS011;42438;53.174;6.730;2022-11-14T06:41:36;57.22;;;24.23;;
56541;SDS011;42438;53.174;6.730;2022-11-14T06:44:07;59.58;;;25.67;;
56541;SDS011;42438;53.174;6.730;2022-11-14T06:46:38;50.90;;;23.08;;
56541;SDS011;42438;53.174;6.730;2022-11-14T06:49:08;57.63;;;23.55;;
56541;SDS011;42438;53.174;6.730;2022-11-14T06:51:39;51.72;;;23.52;;
56541;SDS011;42438;53.174;6.730;2022-11-14T06:54:10;54.58;;;23.98;;
56541;SDS011;42438;53.174;6.730;2022-11-14T06:56:41;57.17;;;23.20;;
56541;SDS011;42438;53.174;6.730;2022-11-14T06:59:12;54.47;;;22.95;;
56541;SDS011;42438;53.174;6.730;2022-11-14T07:01:44;59.63;;;24.33;;
56541;SDS011;42438;53.174;6.730;2022-11-14T07:04:14;59.15;;;23.67;;
56541;SDS011;42438;53.174;6.730;2022-11-14T07:06:45;60.10;;;24.60;;
56541;SDS011;42438;53.174;6.730;2022-11-14T07:09:16;56.45;;;22.42;;
56541;SDS011;42438;53.174;6.730;2022-11-14T07:11:46;59.42;;;24.75;;
56541;SDS011;42438;53.174;6.730;2022-11-14T07:14:17;56.90;;;24.33;;
56541;SDS011;42438;53.174;6.730;2022-11-14T07:16:47;57.70;;;23.60;;
56541;SDS011;42438;53.174;6.730;2022-11-14T07:19:18;55.45;;;23.80;;
56541;SDS011;42438;53.174;6.730;2022-11-14T07:21:49;54.85;;;24.00;;
56541;SDS011;42438;53.174;6.730;2022-11-14T07:24:19;54.08;;;23.25;;
56541;SDS011;42438;53.174;6.730;2022-11-14T07:26:50;53.72;;;23.60;;
56541;SDS011;42438;53.174;6.730;2022-11-14T07:29:21;60.83;;;24.58;;
56541;SDS011;42438;53.174;6.730;2022-11-14T07:31:51;55.15;;;24.45;;
56541;SDS011;42438;53.174;6.730;2022-11-14T07:34:22;59.28;;;25.08;;
56541;SDS011;42438;53.174;6.730;2022-11-14T07:36:53;55.60;;;22.35;;
56541;SDS011;42438;53.174;6.730;2022-11-14T07:39:24;59.20;;;23.88;;
56541;SDS011;42438;53.174;6.730;2022-11-14T07:41:54;69.55;;;27.65;;
56541;SDS011;42438;53.174;6.730;2022-11-14T07:44:25;87.35;;;32.85;;
56541;SDS011;42438;53.174;6.730;2022-11-14T07:46:56;78.63;;;33.92;;
56541;SDS011;42438;53.174;6.730;2022-11-14T07:49:26;86.05;;;35.63;;
56541;SDS011;42438;53.174;6.730;2022-11-14T07:51:57;87.80;;;36.53;;
56541;SDS011;42438;53.174;6.730;2022-11-14T07:54:28;90.03;;;36.75;;
56541;SDS011;42438;53.174;6.730;2022-11-14T07:56:58;84.43;;;34.33;;
56541;SDS011;42438;53.174;6.730;2022-11-14T07:59:29;94.35;;;37.38;;
56541;SDS011;42438;53.174;6.730;2022-11-14T08:01:59;77.40;;;30.95;;
56541;SDS011;42438;53.174;6.730;2022-11-14T08:04:31;65.85;;;28.67;;
56541;SDS011;42438;53.174;6.730;2022-11-14T08:07:02;59.08;;;25.00;;
56541;SDS011;42438;53.174;6.730;2022-11-14T08:09:33;70.60;;;31.88;;
56541;SDS011;42438;53.174;6.730;2022-11-14T08:12:04;77.25;;;34.78;;
56541;SDS011;42438;53.174;6.730;2022-11-14T08:14:34;84.30;;;31.60;;
56541;SDS011;42438;53.174;6.730;2022-11-14T08:17:05;65.88;;;28.08;;
56541;SDS011;42438;53.174;6.730;2022-11-14T08:19:36;67.45;;;29.50;;
56541;SDS011;42438;53.174;6.730;2022-11-14T08:22:06;61.03;;;25.25;;
56541;SDS011;42438;53.174;6.730;2022-11-14T08:24:37;57.13;;;25.05;;
56541;SDS011;42438;53.174;6.730;2022-11-14T08:27:08;65.35;;;27.25;;
56541;SDS011;42438;53.174;6.730;2022-11-14T08:29:38;59.58;;;26.45;;
56541;SDS011;42438;53.174;6.730;2022-11-14T08:32:09;54.13;;;22.85;;
56541;SDS011;42438;53.174;6.730;2022-11-14T08:34:40;56.20;;;25.38;;
56541;SDS011;42438;53.174;6.730;2022-11-14T08:37:10;53.17;;;22.33;;
56541;SDS011;42438;53.174;6.730;2022-11-14T08:39:41;51.25;;;24.35;;
56541;SDS011;42438;53.174;6.730;2022-11-14T08:42:12;53.42;;;23.88;;
56541;SDS011;42438;53.174;6.730;2022-11-14T08:44:43;58.20;;;24.73;;
56541;SDS011;42438;53.174;6.730;2022-11-14T08:47:14;58.17;;;23.70;;
56541;SDS011;42438;53.174;6.730;2022-11-14T08:49:44;54.17;;;25.45;;
56541;SDS011;42438;53.174;6.730;2022-11-14T08:52:15;58.05;;;25.27;;
56541;SDS011;42438;53.174;6.730;2022-11-14T08:54:46;56.58;;;26.35;;
56541;SDS011;42438;53.174;6.730;2022-11-14T08:57:16;55.28;;;24.13;;
56541;SDS011;42438;53.174;6.730;2022-11-14T08:59:47;57.70;;;25.40;;
56541;SDS011;42438;53.174;6.730;2022-11-14T09:02:18;55.28;;;24.30;;
56541;SDS011;42438;53.174;6.730;2022-11-14T09:04:48;59.50;;;26.00;;
56541;SDS011;42438;53.174;6.730;2022-11-14T09:07:19;53.58;;;24.10;;
56541;SDS011;42438;53.174;6.730;2022-11-14T09:09:50;51.15;;;25.08;;
56541;SDS011;42438;53.174;6.730;2022-11-14T09:12:21;60.53;;;25.73;;
56541;SDS011;42438;53.174;6.730;2022-11-14T09:14:51;51.17;;;23.40;;
56541;SDS011;42438;53.174;6.730;2022-11-14T09:17:22;53.92;;;24.45;;
56541;SDS011;42438;53.174;6.730;2022-11-14T09:19:53;58.47;;;26.30;;
56541;SDS011;42438;53.174;6.730;2022-11-14T09:22:24;62.88;;;27.95;;
56541;SDS011;42438;53.174;6.730;2022-11-14T09:24:55;65.22;;;28.15;;
56541;SDS011;42438;53.174;6.730;2022-11-14T09:27:26;52.15;;;24.45;;
56541;SDS011;42438;53.174;6.730;2022-11-14T09:29:56;49.38;;;23.17;;
56541;SDS011;42438;53.174;6.730;2022-11-14T09:32:27;52.65;;;23.00;;
56541;SDS011;42438;53.174;6.730;2022-11-14T09:34:58;52.60;;;23.33;;
56541;SDS011;42438;53.174;6.730;2022-11-14T09:37:28;51.13;;;23.00;;
56541;SDS011;42438;53.174;6.730;2022-11-14T09:39:59;46.05;;;22.33;;
56541;SDS011;42438;53.174;6.730;2022-11-14T09:42:35;48.03;;;23.85;;
56541;SDS011;42438;53.174;6.730;2022-11-14T09:45:28;49.67;;;21.70;;
56541;SDS011;42438;53.174;6.730;2022-11-14T09:48:11;53.42;;;24.55;;
56541;SDS011;42438;53.174;6.730;2022-11-14T09:51:16;54.92;;;26.30;;
56541;SDS011;42438;53.174;6.730;2022-11-14T09:54:12;63.20;;;28.02;;
56541;SDS011;42438;53.174;6.730;2022-11-14T09:56:51;59.33;;;26.60;;
56541;SDS011;42438;53.174;6.730;2022-11-14T09:59:22;58.13;;;27.33;;
56541;SDS011;42438;53.174;6.730;2022-11-14T10:19:45;52.72;;;25.75;;
56541;SDS011;42438;53.174;6.730;2022-11-14T10:30:57;51.88;;;24.63;;
56541;SDS011;42438;53.174;6.730;2022-11-14T10:33:26;55.20;;;24.83;;
56541;SDS011;42438;53.174;6.730;2022-11-14T10:38:59;57.22;;;27.00;;
56541;SDS011;42438;53.174;6.730;2022-11-14T10:41:40;55.80;;;26.25;;
56541;SDS011;42438;53.174;6.730;2022-11-14T10:44:13;52.47;;;24.35;;
56541;SDS011;42438;53.174;6.730;2022-11-14T10:46:51;56.33;;;25.35;;
56541;SDS011;42438;53.174;6.730;2022-11-14T10:49:30;53.97;;;25.58;;
56541;SDS011;42438;53.174;6.730;2022-11-14T10:52:03;57.90;;;27.55;;
56541;SDS011;42438;53.174;6.730;2022-11-14T10:57:26;51.55;;;26.27;;
56541;SDS011;42438;53.174;6.730;2022-11-14T10:59:58;58.72;;;27.40;;
56541;SDS011;42438;53.174;6.730;2022-11-14T11:02:38;53.67;;;25.67;;
56541;SDS011;42438;53.174;6.730;2022-11-14T11:05:22;50.08;;;24.95;;
56541;SDS011;42438;53.174;6.730;2022-11-14T11:07:57;48.60;;;25.02;;
56541;SDS011;42438;53.174;6.730;2022-11-14T11:10:47;49.07;;;23.97;;
56541;SDS011;42438;53.174;6.730;2022-11-14T11:13:45;46.30;;;23.30;;
56541;SDS011;42438;53.174;6.730;2022-11-14T11:16:23;46.33;;;21.92;;
56541;SDS011;42438;53.174;6.730;2022-11-14T11:21:59;40.03;;;20.55;;
56541;SDS011;42438;53.174;6.730;2022-11-14T11:24:31;43.22;;;23.27;;
56541;SDS011;42438;53.174;6.730;2022-11-14T11:32:50;43.35;;;21.90;;
56541;SDS011;42438;53.174;6.730;2022-11-14T11:35:20;45.33;;;21.77;;
56541;SDS011;42438;53.174;6.730;2022-11-14T11:37:53;44.78;;;22.40;;
56541;SDS011;42438;53.174;6.730;2022-11-14T11:40:26;39.70;;;21.05;;
56541;SDS011;42438;53.174;6.730;2022-11-14T11:43:02;42.40;;;21.38;;
56541;SDS011;42438;53.174;6.730;2022-11-14T11:45:38;41.80;;;21.05;;
56541;SDS011;42438;53.174;6.730;2022-11-14T11:48:22;42.87;;;21.13;;
56541;SDS011;42438;53.174;6.730;2022-11-14T11:51:03;44.42;;;22.77;;
56541;SDS011;42438;53.174;6.730;2022-11-14T11:53:36;42.77;;;23.00;;
56541;SDS011;42438;53.174;6.730;2022-11-14T11:56:12;43.88;;;21.52;;
56541;SDS011;42438;53.174;6.730;2022-11-14T11:58:50;46.42;;;23.38;;
56541;SDS011;42438;53.174;6.730;2022-11-14T12:01:24;39.75;;;21.38;;
56541;SDS011;42438;53.174;6.730;2022-11-14T12:03:55;39.20;;;20.75;;
56541;SDS011;42438;53.174;6.730;2022-11-14T12:06:25;42.42;;;21.58;;
56541;SDS011;42438;53.174;6.730;2022-11-14T12:09:35;41.92;;;21.17;;
56541;SDS011;42438;53.174;6.730;2022-11-14T12:12:12;40.53;;;21.33;;
56541;SDS011;42438;53.174;6.730;2022-11-14T12:14:49;45.88;;;23.33;;
56541;SDS011;42438;53.174;6.730;2022-11-14T12:29:23;38.40;;;20.42;;
56541;SDS011;42438;53.174;6.730;2022-11-14T12:32:18;43.40;;;21.40;;
56541;SDS011;42438;53.174;6.730;2022-11-14T12:34:57;38.63;;;20.73;;
56541;SDS011;42438;53.174;6.730;2022-11-14T12:37:33;40.70;;;20.08;;
56541;SDS011;42438;53.174;6.730;2022-11-14T12:40:06;40.33;;;21.75;;
56541;SDS011;42438;53.174;6.730;2022-11-14T12:42:50;40.50;;;20.02;;
56541;SDS011;42438;53.174;6.730;2022-11-14T12:48:28;39.53;;;20.00;;
56541;SDS011;42438;53.174;6.730;2022-11-14T12:51:01;42.63;;;21.55;;
56541;SDS011;42438;53.174;6.730;2022-11-14T13:04:40;35.92;;;18.95;;
56541;SDS011;42438;53.174;6.730;2022-11-14T13:07:36;37.97;;;20.83;;
56541;SDS011;42438;53.174;6.730;2022-11-14T13:10:13;40.45;;;20.65;;
56541;SDS011;42438;53.174;6.730;2022-11-14T13:12:58;38.67;;;20.13;;
56541;SDS011;42438;53.174;6.730;2022-11-14T13:16:00;40.33;;;20.10;;
56541;SDS011;42438;53.174;6.730;2022-11-14T13:18:51;36.33;;;19.17;;
56541;SDS011;42438;53.174;6.730;2022-11-14T13:27:29;40.65;;;20.50;;
56541;SDS011;42438;53.174;6.730;2022-11-14T13:30:04;36.95;;;18.42;;
56541;SDS011;42438;53.174;6.730;2022-11-14T13:35:11;38.13;;;18.63;;
56541;SDS011;42438;53.174;6.730;2022-11-14T13:40:52;34.20;;;17.92;;
56541;SDS011;42438;53.174;6.730;2022-11-14T13:52:31;42.00;;;20.23;;
56541;SDS011;42438;53.174;6.730;2022-11-14T13:55:03;33.83;;;17.70;;
56541;SDS011;42438;53.174;6.730;2022-11-14T14:00:10;36.65;;;20.20;;
56541;SDS011;42438;53.174;6.730;2022-11-14T14:03:04;39.97;;;19.80;;
56541;SDS011;42438;53.174;6.730;2022-11-14T14:06:05;38.67;;;18.75;;
56541;SDS011;42438;53.174;6.730;2022-11-14T14:16:58;36.83;;;18.15;;
56541;SDS011;42438;53.174;6.730;2022-11-14T14:22:54;58.45;;;22.63;;
56541;SDS011;42438;53.174;6.730;2022-11-14T14:25:50;35.08;;;18.92;;
56541;SDS011;42438;53.174;6.730;2022-11-14T14:31:35;40.03;;;19.42;;
56541;SDS011;42438;53.174;6.730;2022-11-14T14:34:22;37.38;;;18.77;;
56541;SDS011;42438;53.174;6.730;2022-11-14T14:36:54;34.78;;;16.88;;
56541;SDS011;42438;53.174;6.730;2022-11-14T14:39:26;37.28;;;19.30;;
56541;SDS011;42438;53.174;6.730;2022-11-14T14:41:57;34.92;;;18.70;;
56541;SDS011;42438;53.174;6.730;2022-11-14T14:44:37;35.60;;;18.65;;
56541;SDS011;42438;53.174;6.730;2022-11-14T14:47:16;33.05;;;18.25;;
56541;SDS011;42438;53.174;6.730;2022-11-14T14:50:04;37.38;;;18.48;;
56541;SDS011;42438;53.174;6.730;2022-11-14T14:52:43;38.58;;;18.75;;
56541;SDS011;42438;53.174;6.730;2022-11-14T14:55:21;32.65;;;16.88;;
56541;SDS011;42438;53.174;6.730;2022-11-14T14:58:11;35.40;;;19.45;;
56541;SDS011;42438;53.174;6.730;2022-11-14T15:00:58;31.85;;;16.70;;
56541;SDS011;42438;53.174;6.730;2022-11-14T15:03:36;33.08;;;17.10;;
56541;SDS011;42438;53.174;6.730;2022-11-14T15:06:23;31.85;;;16.33;;
56541;SDS011;42438;53.174;6.730;2022-11-14T15:09:29;31.45;;;16.58;;
56541;SDS011;42438;53.174;6.730;2022-11-14T15:11:59;38.83;;;17.30;;
56541;SDS011;42438;53.174;6.730;2022-11-14T15:14:32;33.92;;;16.45;;
56541;SDS011;42438;53.174;6.730;2022-11-14T15:17:05;31.92;;;16.15;;
56541;SDS011;42438;53.174;6.730;2022-11-14T15:19:40;31.27;;;16.70;;
56541;SDS011;42438;53.174;6.730;2022-11-14T15:27:46;31.83;;;16.52;;
56541;SDS011;42438;53.174;6.730;2022-11-14T15:30:24;32.38;;;15.90;;
56541;SDS011;42438;53.174;6.730;2022-11-14T15:33:01;31.77;;;17.15;;
56541;SDS011;42438;53.174;6.730;2022-11-14T15:35:34;30.83;;;16.23;;
56541;SDS011;42438;53.174;6.730;2022-11-14T15:40:39;32.33;;;16.95;;
56541;SDS011;42438;53.174;6.730;2022-11-14T15:49:24;32.45;;;17.25;;
56541;SDS011;42438;53.174;6.730;2022-11-14T15:51:56;40.97;;;20.00;;
56541;SDS011;42438;53.174;6.730;2022-11-14T15:54:32;40.70;;;19.38;;
56541;SDS011;42438;53.174;6.730;2022-11-14T15:57:14;39.00;;;19.13;;
56541;SDS011;42438;53.174;6.730;2022-11-14T15:59:46;46.83;;;28.73;;
56541;SDS011;42438;53.174;6.730;2022-11-14T16:02:18;37.67;;;18.65;;
56541;SDS011;42438;53.174;6.730;2022-11-14T16:04:51;32.38;;;17.10;;
56541;SDS011;42438;53.174;6.730;2022-11-14T16:07:23;38.30;;;18.50;;
56541;SDS011;42438;53.174;6.730;2022-11-14T16:09:54;41.83;;;19.98;;
56541;SDS011;42438;53.174;6.730;2022-11-14T16:12:24;34.10;;;16.50;;
56541;SDS011;42438;53.174;6.730;2022-11-14T16:14:55;44.95;;;23.17;;
56541;SDS011;42438;53.174;6.730;2022-11-14T16:17:26;31.27;;;17.88;;
56541;SDS011;42438;53.174;6.730;2022-11-14T16:19:57;32.92;;;17.00;;
56541;SDS011;42438;53.174;6.730;2022-11-14T16:22:28;35.72;;;17.55;;
56541;SDS011;42438;53.174;6.730;2022-11-14T16:24:59;31.55;;;17.33;;
56541;SDS011;42438;53.174;6.730;2022-11-14T16:27:29;35.75;;;18.63;;
56541;SDS011;42438;53.174;6.730;2022-11-14T16:30:00;35.55;;;18.27;;
56541;SDS011;42438;53.174;6.730;2022-11-14T16:32:31;36.17;;;17.05;;
56541;SDS011;42438;53.174;6.730;2022-11-14T16:35:01;36.58;;;18.30;;
56541;SDS011;42438;53.174;6.730;2022-11-14T16:37:32;40.20;;;19.20;;
56541;SDS011;42438;53.174;6.730;2022-11-14T16:40:03;42.80;;;19.20;;
56541;SDS011;42438;53.174;6.730;2022-11-14T16:42:34;38.97;;;19.67;;
56541;SDS011;42438;53.174;6.730;2022-11-14T16:45:05;42.88;;;20.08;;
56541;SDS011;42438;53.174;6.730;2022-11-14T16:47:36;40.75;;;19.73;;
56541;SDS011;42438;53.174;6.730;2022-11-14T16:50:08;43.45;;;20.13;;
56541;SDS011;42438;53.174;6.730;2022-11-14T16:52:39;43.00;;;23.48;;
56541;SDS011;42438;53.174;6.730;2022-11-14T16:55:10;46.95;;;23.73;;
56541;SDS011;42438;53.174;6.730;2022-11-14T16:57:41;40.10;;;20.50;;
56541;SDS011;42438;53.174;6.730;2022-11-14T17:00:12;34.88;;;19.33;;
56541;SDS011;42438;53.174;6.730;2022-11-14T17:02:43;35.40;;;19.10;;
56541;SDS011;42438;53.174;6.730;2022-11-14T17:05:14;31.95;;;16.42;;
56541;SDS011;42438;53.174;6.730;2022-11-14T17:07:45;36.13;;;17.20;;
56541;SDS011;42438;53.174;6.730;2022-11-14T17:10:16;33.85;;;16.95;;